sensor_id;sensor_type;location;lat;lon;timestamp;P1;durP1;ratioP1;P2;durP2;ratioP2
53925;SDS011;39836;52.754;6.866;2023-03-01T00:00:20;23.38;;;16.52;;
53925;SDS011;39836;52.754;6.866;2023-03-01T00:02:46;25.08;;;16.83;;
53925;SDS011;39836;52.754;6.866;2023-03-01T00:05:12;25.45;;;17.52;;
53925;SDS011;39836;52.754;6.866;2023-03-01T00:07:37;27.25;;;18.77;;
53925;SDS011;39836;52.754;6.866;2023-03-01T00:10:03;28.88;;;18.80;;
53925;SDS011;39836;52.754;6.866;2023-03-01T00:12:29;23.75;;;17.70;;
53925;SDS011;39836;52.754;6.866;2023-03-01T00:14:56;22.33;;;18.45;;
53925;SDS011;39836;52.754;6.866;2023-03-01T00:17:22;27.10;;;18.23;;
53925;SDS011;39836;52.754;6.866;2023-03-01T00:19:47;27.67;;;18.77;;
53925;SDS011;39836;52.754;6.866;2023-03-01T00:22:13;26.95;;;18.95;;
53925;SDS011;39836;52.754;6.866;2023-03-01T00:24:39;26.58;;;19.92;;
53925;SDS011;39836;52.754;6.866;2023-03-01T00:27:04;33.20;;;20.65;;
53925;SDS011;39836;52.754;6.866;2023-03-01T00:29:30;27.90;;;21.05;;
53925;SDS011;39836;52.754;6.866;2023-03-01T00:31:56;32.70;;;21.98;;
53925;SDS011;39836;52.754;6.866;2023-03-01T00:34:21;32.30;;;22.55;;
53925;SDS011;39836;52.754;6.866;2023-03-01T00:36:47;37.28;;;23.48;;
53925;SDS011;39836;52.754;6.866;2023-03-01T00:39:13;34.45;;;23.88;;
53925;SDS011;39836;52.754;6.866;2023-03-01T00:41:40;37.60;;;25.55;;
53925;SDS011;39836;52.754;6.866;2023-03-01T00:44:06;37.00;;;25.75;;
53925;SDS011;39836;52.754;6.866;2023-03-01T00:46:32;38.30;;;25.63;;
53925;SDS011;39836;52.754;6.866;2023-03-01T00:48:58;39.88;;;27.00;;
53925;SDS011;39836;52.754;6.866;2023-03-01T00:51:27;42.10;;;26.23;;
53925;SDS011;39836;52.754;6.866;2023-03-01T00:53:53;32.00;;;22.52;;
53925;SDS011;39836;52.754;6.866;2023-03-01T00:56:21;32.03;;;22.05;;
53925;SDS011;39836;52.754;6.866;2023-03-01T00:58:47;37.10;;;24.75;;
53925;SDS011;39836;52.754;6.866;2023-03-01T01:01:32;36.17;;;24.65;;
53925;SDS011;39836;52.754;6.866;2023-03-01T01:03:59;32.20;;;21.58;;
53925;SDS011;39836;52.754;6.866;2023-03-01T01:06:37;34.88;;;24.35;;
53925;SDS011;39836;52.754;6.866;2023-03-01T01:09:05;32.25;;;21.85;;
53925;SDS011;39836;52.754;6.866;2023-03-01T01:11:32;36.53;;;23.90;;
53925;SDS011;39836;52.754;6.866;2023-03-01T01:14:00;32.20;;;23.00;;
53925;SDS011;39836;52.754;6.866;2023-03-01T01:16:26;36.33;;;23.48;;
53925;SDS011;39836;52.754;6.866;2023-03-01T01:18:53;32.58;;;22.70;;
53925;SDS011;39836;52.754;6.866;2023-03-01T01:21:19;33.60;;;23.75;;
53925;SDS011;39836;52.754;6.866;2023-03-01T01:23:47;36.80;;;23.33;;
53925;SDS011;39836;52.754;6.866;2023-03-01T01:26:14;32.03;;;21.45;;
53925;SDS011;39836;52.754;6.866;2023-03-01T01:28:42;27.33;;;20.88;;
53925;SDS011;39836;52.754;6.866;2023-03-01T01:31:08;28.33;;;20.02;;
53925;SDS011;39836;52.754;6.866;2023-03-01T01:33:33;26.17;;;19.38;;
53925;SDS011;39836;52.754;6.866;2023-03-01T01:35:59;33.03;;;21.85;;
53925;SDS011;39836;52.754;6.866;2023-03-01T01:38:25;37.50;;;23.40;;
53925;SDS011;39836;52.754;6.866;2023-03-01T01:40:51;38.50;;;23.48;;
53925;SDS011;39836;52.754;6.866;2023-03-01T01:43:22;34.22;;;24.35;;
53925;SDS011;39836;52.754;6.866;2023-03-01T01:45:50;38.25;;;25.63;;
53925;SDS011;39836;52.754;6.866;2023-03-01T01:48:21;39.95;;;25.85;;
53925;SDS011;39836;52.754;6.866;2023-03-01T01:50:56;33.17;;;23.00;;
53925;SDS011;39836;52.754;6.866;2023-03-01T01:53:25;39.03;;;24.10;;
53925;SDS011;39836;52.754;6.866;2023-03-01T01:55:52;38.35;;;22.95;;
53925;SDS011;39836;52.754;6.866;2023-03-01T01:58:23;38.15;;;25.15;;
53925;SDS011;39836;52.754;6.866;2023-03-01T02:00:52;37.63;;;24.60;;
53925;SDS011;39836;52.754;6.866;2023-03-01T02:03:20;34.88;;;23.67;;
53925;SDS011;39836;52.754;6.866;2023-03-01T02:08:54;34.40;;;24.58;;
53925;SDS011;39836;52.754;6.866;2023-03-01T02:11:24;39.92;;;25.00;;
53925;SDS011;39836;52.754;6.866;2023-03-01T02:13:51;36.60;;;24.63;;
53925;SDS011;39836;52.754;6.866;2023-03-01T02:16:18;39.22;;;26.45;;
53925;SDS011;39836;52.754;6.866;2023-03-01T02:18:44;36.53;;;24.10;;
53925;SDS011;39836;52.754;6.866;2023-03-01T02:24:00;38.20;;;22.90;;
53925;SDS011;39836;52.754;6.866;2023-03-01T02:26:54;35.33;;;24.08;;
53925;SDS011;39836;52.754;6.866;2023-03-01T02:29:22;39.10;;;24.33;;
53925;SDS011;39836;52.754;6.866;2023-03-01T02:31:49;38.53;;;23.00;;
53925;SDS011;39836;52.754;6.866;2023-03-01T02:34:18;37.78;;;23.30;;
53925;SDS011;39836;52.754;6.866;2023-03-01T02:36:48;35.33;;;23.35;;
53925;SDS011;39836;52.754;6.866;2023-03-01T02:39:21;34.33;;;24.88;;
53925;SDS011;39836;52.754;6.866;2023-03-01T02:41:56;34.17;;;22.42;;
53925;SDS011;39836;52.754;6.866;2023-03-01T02:44:22;35.10;;;23.00;;
53925;SDS011;39836;52.754;6.866;2023-03-01T02:46:50;31.83;;;21.85;;
53925;SDS011;39836;52.754;6.866;2023-03-01T02:49:18;32.72;;;23.15;;
53925;SDS011;39836;52.754;6.866;2023-03-01T02:57:39;35.50;;;23.25;;
53925;SDS011;39836;52.754;6.866;2023-03-01T03:00:10;32.58;;;22.05;;
53925;SDS011;39836;52.754;6.866;2023-03-01T03:02:44;37.53;;;22.13;;
53925;SDS011;39836;52.754;6.866;2023-03-01T03:05:12;33.65;;;22.30;;
53925;SDS011;39836;52.754;6.866;2023-03-01T03:07:43;33.75;;;21.90;;
53925;SDS011;39836;52.754;6.866;2023-03-01T03:10:15;33.03;;;22.48;;
53925;SDS011;39836;52.754;6.866;2023-03-01T03:12:58;37.50;;;23.20;;
53925;SDS011;39836;52.754;6.866;2023-03-01T03:15:27;35.00;;;21.85;;
53925;SDS011;39836;52.754;6.866;2023-03-01T03:17:54;34.90;;;22.90;;
53925;SDS011;39836;52.754;6.866;2023-03-01T03:20:22;36.20;;;23.35;;
53925;SDS011;39836;52.754;6.866;2023-03-01T03:22:50;38.33;;;23.65;;
53925;SDS011;39836;52.754;6.866;2023-03-01T03:25:18;33.28;;;22.75;;
53925;SDS011;39836;52.754;6.866;2023-03-01T03:27:45;35.28;;;22.63;;
53925;SDS011;39836;52.754;6.866;2023-03-01T03:30:12;31.08;;;22.02;;
53925;SDS011;39836;52.754;6.866;2023-03-01T03:32:42;35.67;;;22.48;;
53925;SDS011;39836;52.754;6.866;2023-03-01T03:35:18;33.15;;;22.00;;
53925;SDS011;39836;52.754;6.866;2023-03-01T03:37:44;35.90;;;23.25;;
53925;SDS011;39836;52.754;6.866;2023-03-01T03:40:29;33.47;;;22.73;;
53925;SDS011;39836;52.754;6.866;2023-03-01T03:42:55;32.65;;;22.33;;
53925;SDS011;39836;52.754;6.866;2023-03-01T03:45:21;34.88;;;22.77;;
53925;SDS011;39836;52.754;6.866;2023-03-01T03:47:47;33.38;;;22.45;;
53925;SDS011;39836;52.754;6.866;2023-03-01T03:50:13;36.65;;;22.85;;
53925;SDS011;39836;52.754;6.866;2023-03-01T03:52:41;34.97;;;22.73;;
53925;SDS011;39836;52.754;6.866;2023-03-01T03:55:08;36.05;;;23.70;;
53925;SDS011;39836;52.754;6.866;2023-03-01T03:57:35;33.58;;;23.08;;
53925;SDS011;39836;52.754;6.866;2023-03-01T04:00:02;35.15;;;22.65;;
53925;SDS011;39836;52.754;6.866;2023-03-01T04:02:29;32.75;;;21.15;;
53925;SDS011;39836;52.754;6.866;2023-03-01T04:04:55;34.55;;;22.98;;
53925;SDS011;39836;52.754;6.866;2023-03-01T04:07:21;35.20;;;23.05;;
53925;SDS011;39836;52.754;6.866;2023-03-01T04:09:47;34.67;;;22.80;;
53925;SDS011;39836;52.754;6.866;2023-03-01T04:12:12;35.65;;;23.15;;
53925;SDS011;39836;52.754;6.866;2023-03-01T04:14:38;33.25;;;21.77;;
53925;SDS011;39836;52.754;6.866;2023-03-01T04:17:04;30.92;;;20.48;;
53925;SDS011;39836;52.754;6.866;2023-03-01T04:19:33;33.92;;;22.83;;
53925;SDS011;39836;52.754;6.866;2023-03-01T04:22:04;37.40;;;24.13;;
53925;SDS011;39836;52.754;6.866;2023-03-01T04:24:37;33.55;;;22.67;;
53925;SDS011;39836;52.754;6.866;2023-03-01T04:27:03;32.25;;;22.98;;
53925;SDS011;39836;52.754;6.866;2023-03-01T04:29:29;31.33;;;22.90;;
53925;SDS011;39836;52.754;6.866;2023-03-01T04:31:54;35.20;;;23.42;;
53925;SDS011;39836;52.754;6.866;2023-03-01T04:34:20;31.60;;;22.05;;
53925;SDS011;39836;52.754;6.866;2023-03-01T04:36:46;39.33;;;23.88;;
53925;SDS011;39836;52.754;6.866;2023-03-01T04:39:11;33.45;;;21.98;;
53925;SDS011;39836;52.754;6.866;2023-03-01T04:41:38;36.33;;;22.88;;
53925;SDS011;39836;52.754;6.866;2023-03-01T04:44:04;31.38;;;22.75;;
53925;SDS011;39836;52.754;6.866;2023-03-01T04:46:34;32.15;;;21.92;;
53925;SDS011;39836;52.754;6.866;2023-03-01T04:49:00;33.78;;;21.98;;
53925;SDS011;39836;52.754;6.866;2023-03-01T04:51:27;34.33;;;22.58;;
53925;SDS011;39836;52.754;6.866;2023-03-01T04:53:53;38.95;;;22.95;;
53925;SDS011;39836;52.754;6.866;2023-03-01T04:56:18;33.30;;;22.83;;
53925;SDS011;39836;52.754;6.866;2023-03-01T04:58:44;32.40;;;22.40;;
53925;SDS011;39836;52.754;6.866;2023-03-01T05:01:15;33.13;;;22.90;;
53925;SDS011;39836;52.754;6.866;2023-03-01T05:03:46;35.33;;;22.98;;
53925;SDS011;39836;52.754;6.866;2023-03-01T05:06:14;32.90;;;23.50;;
53925;SDS011;39836;52.754;6.866;2023-03-01T05:08:41;36.95;;;25.33;;
53925;SDS011;39836;52.754;6.866;2023-03-01T05:11:07;37.17;;;24.90;;
53925;SDS011;39836;52.754;6.866;2023-03-01T05:13:34;37.47;;;23.80;;
53925;SDS011;39836;52.754;6.866;2023-03-01T05:16:01;34.20;;;23.88;;
53925;SDS011;39836;52.754;6.866;2023-03-01T05:18:28;38.15;;;24.60;;
53925;SDS011;39836;52.754;6.866;2023-03-01T05:20:56;36.55;;;23.90;;
53925;SDS011;39836;52.754;6.866;2023-03-01T05:23:44;38.03;;;25.08;;
53925;SDS011;39836;52.754;6.866;2023-03-01T05:26:11;39.35;;;23.88;;
53925;SDS011;39836;52.754;6.866;2023-03-01T05:28:37;34.38;;;23.02;;
53925;SDS011;39836;52.754;6.866;2023-03-01T05:31:03;40.10;;;24.88;;
53925;SDS011;39836;52.754;6.866;2023-03-01T05:33:35;36.03;;;23.60;;
53925;SDS011;39836;52.754;6.866;2023-03-01T05:36:05;41.28;;;24.17;;
53925;SDS011;39836;52.754;6.866;2023-03-01T05:38:33;38.88;;;24.40;;
53925;SDS011;39836;52.754;6.866;2023-03-01T05:40:59;36.00;;;23.48;;
53925;SDS011;39836;52.754;6.866;2023-03-01T05:43:25;39.95;;;24.45;;
53925;SDS011;39836;52.754;6.866;2023-03-01T05:45:51;38.50;;;24.00;;
53925;SDS011;39836;52.754;6.866;2023-03-01T05:48:16;39.85;;;24.77;;
53925;SDS011;39836;52.754;6.866;2023-03-01T05:50:44;41.30;;;26.02;;
53925;SDS011;39836;52.754;6.866;2023-03-01T05:53:19;39.20;;;24.73;;
53925;SDS011;39836;52.754;6.866;2023-03-01T05:55:48;43.25;;;26.10;;
53925;SDS011;39836;52.754;6.866;2023-03-01T05:58:16;42.13;;;24.17;;
53925;SDS011;39836;52.754;6.866;2023-03-01T06:00:44;42.75;;;26.80;;
53925;SDS011;39836;52.754;6.866;2023-03-01T06:03:11;49.42;;;29.95;;
53925;SDS011;39836;52.754;6.866;2023-03-01T06:05:39;39.15;;;26.38;;
53925;SDS011;39836;52.754;6.866;2023-03-01T06:08:06;45.15;;;28.17;;
53925;SDS011;39836;52.754;6.866;2023-03-01T06:10:32;44.45;;;28.02;;
53925;SDS011;39836;52.754;6.866;2023-03-01T06:12:58;42.70;;;27.52;;
53925;SDS011;39836;52.754;6.866;2023-03-01T06:15:24;42.92;;;27.98;;
53925;SDS011;39836;52.754;6.866;2023-03-01T06:17:50;41.25;;;27.52;;
53925;SDS011;39836;52.754;6.866;2023-03-01T06:20:20;43.08;;;28.98;;
53925;SDS011;39836;52.754;6.866;2023-03-01T06:22:48;46.83;;;29.50;;
53925;SDS011;39836;52.754;6.866;2023-03-01T06:25:15;48.63;;;29.38;;
53925;SDS011;39836;52.754;6.866;2023-03-01T06:27:42;50.63;;;29.88;;
53925;SDS011;39836;52.754;6.866;2023-03-01T06:30:09;46.53;;;28.85;;
53925;SDS011;39836;52.754;6.866;2023-03-01T06:32:37;48.58;;;30.85;;
53925;SDS011;39836;52.754;6.866;2023-03-01T06:35:07;48.80;;;29.50;;
53925;SDS011;39836;52.754;6.866;2023-03-01T06:37:34;51.35;;;30.23;;
53925;SDS011;39836;52.754;6.866;2023-03-01T06:40:00;51.33;;;29.35;;
53925;SDS011;39836;52.754;6.866;2023-03-01T06:42:32;56.03;;;31.63;;
53925;SDS011;39836;52.754;6.866;2023-03-01T06:44:57;50.80;;;30.27;;
53925;SDS011;39836;52.754;6.866;2023-03-01T06:47:23;51.35;;;32.40;;
53925;SDS011;39836;52.754;6.866;2023-03-01T06:49:49;52.75;;;29.67;;
53925;SDS011;39836;52.754;6.866;2023-03-01T06:52:14;51.97;;;30.75;;
53925;SDS011;39836;52.754;6.866;2023-03-01T06:54:40;53.30;;;30.67;;
53925;SDS011;39836;52.754;6.866;2023-03-01T06:57:05;50.03;;;32.42;;
53925;SDS011;39836;52.754;6.866;2023-03-01T06:59:31;53.38;;;30.52;;
53925;SDS011;39836;52.754;6.866;2023-03-01T07:01:57;51.28;;;30.02;;
53925;SDS011;39836;52.754;6.866;2023-03-01T07:04:22;46.97;;;29.75;;
53925;SDS011;39836;52.754;6.866;2023-03-01T07:06:48;51.10;;;31.88;;
53925;SDS011;39836;52.754;6.866;2023-03-01T07:09:20;52.67;;;33.40;;
53925;SDS011;39836;52.754;6.866;2023-03-01T07:11:49;52.30;;;30.73;;
53925;SDS011;39836;52.754;6.866;2023-03-01T07:14:15;50.22;;;31.65;;
53925;SDS011;39836;52.754;6.866;2023-03-01T07:16:41;52.60;;;31.65;;
53925;SDS011;39836;52.754;6.866;2023-03-01T07:19:07;52.30;;;31.42;;
53925;SDS011;39836;52.754;6.866;2023-03-01T07:21:32;48.78;;;30.67;;
53925;SDS011;39836;52.754;6.866;2023-03-01T07:23:58;50.40;;;32.58;;
53925;SDS011;39836;52.754;6.866;2023-03-01T07:26:24;50.40;;;31.52;;
53925;SDS011;39836;52.754;6.866;2023-03-01T07:28:49;54.67;;;31.25;;
53925;SDS011;39836;52.754;6.866;2023-03-01T07:31:15;51.55;;;31.83;;
53925;SDS011;39836;52.754;6.866;2023-03-01T07:33:41;54.13;;;32.08;;
53925;SDS011;39836;52.754;6.866;2023-03-01T07:36:07;53.95;;;33.83;;
53925;SDS011;39836;52.754;6.866;2023-03-01T07:38:34;57.22;;;33.78;;
53925;SDS011;39836;52.754;6.866;2023-03-01T07:41:00;50.75;;;32.28;;
53925;SDS011;39836;52.754;6.866;2023-03-01T07:43:27;53.83;;;32.75;;
53925;SDS011;39836;52.754;6.866;2023-03-01T07:45:53;55.55;;;33.83;;
53925;SDS011;39836;52.754;6.866;2023-03-01T07:48:19;53.55;;;31.98;;
53925;SDS011;39836;52.754;6.866;2023-03-01T07:50:45;55.95;;;33.42;;
53925;SDS011;39836;52.754;6.866;2023-03-01T07:53:10;46.05;;;31.67;;
53925;SDS011;39836;52.754;6.866;2023-03-01T07:55:37;51.83;;;32.40;;
53925;SDS011;39836;52.754;6.866;2023-03-01T07:58:02;51.45;;;30.70;;
53925;SDS011;39836;52.754;6.866;2023-03-01T08:00:29;49.95;;;32.28;;
53925;SDS011;39836;52.754;6.866;2023-03-01T08:02:54;53.25;;;31.60;;
53925;SDS011;39836;52.754;6.866;2023-03-01T08:05:23;47.70;;;30.48;;
53925;SDS011;39836;52.754;6.866;2023-03-01T08:07:49;45.67;;;29.10;;
53925;SDS011;39836;52.754;6.866;2023-03-01T08:10:14;43.20;;;28.20;;
53925;SDS011;39836;52.754;6.866;2023-03-01T08:12:40;47.42;;;28.25;;
53925;SDS011;39836;52.754;6.866;2023-03-01T08:15:06;41.90;;;27.38;;
53925;SDS011;39836;52.754;6.866;2023-03-01T08:17:33;43.70;;;25.58;;
53925;SDS011;39836;52.754;6.866;2023-03-01T08:19:58;39.30;;;25.45;;
53925;SDS011;39836;52.754;6.866;2023-03-01T08:22:24;38.00;;;23.98;;
53925;SDS011;39836;52.754;6.866;2023-03-01T08:24:50;43.58;;;25.50;;
53925;SDS011;39836;52.754;6.866;2023-03-01T08:27:16;40.92;;;24.70;;
53925;SDS011;39836;52.754;6.866;2023-03-01T08:29:42;36.38;;;22.33;;
53925;SDS011;39836;52.754;6.866;2023-03-01T08:32:08;30.27;;;20.23;;
53925;SDS011;39836;52.754;6.866;2023-03-01T08:34:34;28.50;;;20.55;;
53925;SDS011;39836;52.754;6.866;2023-03-01T08:37:00;30.77;;;19.92;;
53925;SDS011;39836;52.754;6.866;2023-03-01T08:39:26;28.38;;;18.88;;
53925;SDS011;39836;52.754;6.866;2023-03-01T08:41:52;22.92;;;16.23;;
53925;SDS011;39836;52.754;6.866;2023-03-01T08:44:18;25.40;;;16.27;;
53925;SDS011;39836;52.754;6.866;2023-03-01T08:46:46;22.92;;;16.10;;
53925;SDS011;39836;52.754;6.866;2023-03-01T08:49:17;21.73;;;14.77;;
53925;SDS011;39836;52.754;6.866;2023-03-01T08:51:44;18.20;;;14.20;;
53925;SDS011;39836;52.754;6.866;2023-03-01T08:54:11;20.58;;;13.00;;
53925;SDS011;39836;52.754;6.866;2023-03-01T08:56:39;22.67;;;13.13;;
53925;SDS011;39836;52.754;6.866;2023-03-01T08:59:05;23.25;;;13.85;;
53925;SDS011;39836;52.754;6.866;2023-03-01T09:01:31;16.65;;;12.43;;
53925;SDS011;39836;52.754;6.866;2023-03-01T09:03:57;17.35;;;11.30;;
53925;SDS011;39836;52.754;6.866;2023-03-01T09:06:23;16.45;;;10.60;;
53925;SDS011;39836;52.754;6.866;2023-03-01T09:08:49;16.38;;;9.98;;
53925;SDS011;39836;52.754;6.866;2023-03-01T09:11:17;12.90;;;9.38;;
53925;SDS011;39836;52.754;6.866;2023-03-01T09:13:44;12.70;;;8.77;;
53925;SDS011;39836;52.754;6.866;2023-03-01T09:16:12;12.75;;;8.75;;
53925;SDS011;39836;52.754;6.866;2023-03-01T09:18:39;10.15;;;7.55;;
53925;SDS011;39836;52.754;6.866;2023-03-01T09:21:06;11.35;;;7.55;;
53925;SDS011;39836;52.754;6.866;2023-03-01T09:23:35;12.00;;;6.95;;
53925;SDS011;39836;52.754;6.866;2023-03-01T09:26:02;9.77;;;6.68;;
53925;SDS011;39836;52.754;6.866;2023-03-01T09:28:28;11.25;;;6.43;;
53925;SDS011;39836;52.754;6.866;2023-03-01T09:30:53;11.75;;;6.25;;
53925;SDS011;39836;52.754;6.866;2023-03-01T09:33:24;12.27;;;6.05;;
53925;SDS011;39836;52.754;6.866;2023-03-01T09:35:55;10.85;;;7.03;;
53925;SDS011;39836;52.754;6.866;2023-03-01T09:38:32;7.95;;;5.78;;
53925;SDS011;39836;52.754;6.866;2023-03-01T09:40:58;8.75;;;6.60;;
53925;SDS011;39836;52.754;6.866;2023-03-01T09:43:35;9.57;;;6.30;;
53925;SDS011;39836;52.754;6.866;2023-03-01T09:46:13;8.43;;;5.90;;
53925;SDS011;39836;52.754;6.866;2023-03-01T09:48:44;11.60;;;7.03;;
53925;SDS011;39836;52.754;6.866;2023-03-01T09:51:19;11.38;;;6.68;;
53925;SDS011;39836;52.754;6.866;2023-03-01T09:56:20;10.23;;;5.68;;
53925;SDS011;39836;52.754;6.866;2023-03-01T10:09:46;10.20;;;6.38;;
53925;SDS011;39836;52.754;6.866;2023-03-01T10:12:34;9.43;;;6.88;;
53925;SDS011;39836;52.754;6.866;2023-03-01T10:15:10;9.30;;;5.90;;
53925;SDS011;39836;52.754;6.866;2023-03-01T10:17:50;8.45;;;6.28;;
53925;SDS011;39836;52.754;6.866;2023-03-01T10:20:45;8.75;;;5.63;;
53925;SDS011;39836;52.754;6.866;2023-03-01T10:23:32;11.02;;;6.10;;
53925;SDS011;39836;52.754;6.866;2023-03-01T10:28:50;7.45;;;4.93;;
53925;SDS011;39836;52.754;6.866;2023-03-01T10:31:20;6.70;;;4.75;;
53925;SDS011;39836;52.754;6.866;2023-03-01T10:33:53;12.40;;;5.35;;
53925;SDS011;39836;52.754;6.866;2023-03-01T10:36:20;8.02;;;5.50;;
53925;SDS011;39836;52.754;6.866;2023-03-01T10:38:53;7.43;;;5.15;;
53925;SDS011;39836;52.754;6.866;2023-03-01T10:41:22;8.50;;;5.22;;
53925;SDS011;39836;52.754;6.866;2023-03-01T10:43:56;8.15;;;4.55;;
53925;SDS011;39836;52.754;6.866;2023-03-01T10:49:13;6.40;;;4.68;;
53925;SDS011;39836;52.754;6.866;2023-03-01T10:51:37;7.47;;;4.57;;
53925;SDS011;39836;52.754;6.866;2023-03-01T10:54:05;8.40;;;5.50;;
53925;SDS011;39836;52.754;6.866;2023-03-01T10:56:45;9.63;;;4.90;;
53925;SDS011;39836;52.754;6.866;2023-03-01T10:59:21;9.50;;;5.43;;
53925;SDS011;39836;52.754;6.866;2023-03-01T11:05:00;10.55;;;5.70;;
53925;SDS011;39836;52.754;6.866;2023-03-01T11:07:42;8.07;;;5.93;;
53925;SDS011;39836;52.754;6.866;2023-03-01T11:10:15;8.88;;;6.25;;
53925;SDS011;39836;52.754;6.866;2023-03-01T11:12:42;9.43;;;6.47;;
53925;SDS011;39836;52.754;6.866;2023-03-01T11:15:15;8.95;;;6.10;;
53925;SDS011;39836;52.754;6.866;2023-03-01T11:17:47;10.68;;;5.32;;
53925;SDS011;39836;52.754;6.866;2023-03-01T11:20:17;10.50;;;5.78;;
53925;SDS011;39836;52.754;6.866;2023-03-01T11:22:56;8.30;;;5.82;;
53925;SDS011;39836;52.754;6.866;2023-03-01T11:25:27;10.00;;;6.38;;
53925;SDS011;39836;52.754;6.866;2023-03-01T11:27:56;12.77;;;6.88;;
53925;SDS011;39836;52.754;6.866;2023-03-01T11:30:27;10.43;;;6.30;;
53925;SDS011;39836;52.754;6.866;2023-03-01T11:38:51;11.50;;;5.97;;
53925;SDS011;39836;52.754;6.866;2023-03-01T11:41:24;12.50;;;6.57;;
53925;SDS011;39836;52.754;6.866;2023-03-01T11:51:47;11.10;;;6.47;;
53925;SDS011;39836;52.754;6.866;2023-03-01T11:54:57;11.00;;;7.15;;
53925;SDS011;39836;52.754;6.866;2023-03-01T12:03:52;11.05;;;7.25;;
53925;SDS011;39836;52.754;6.866;2023-03-01T12:09:09;12.07;;;7.30;;
53925;SDS011;39836;52.754;6.866;2023-03-01T12:12:20;18.17;;;7.70;;
53925;SDS011;39836;52.754;6.866;2023-03-01T12:20:35;10.27;;;7.25;;
53925;SDS011;39836;52.754;6.866;2023-03-01T12:45:50;9.48;;;7.18;;
53925;SDS011;39836;52.754;6.866;2023-03-01T12:48:34;11.65;;;7.20;;
53925;SDS011;39836;52.754;6.866;2023-03-01T12:51:06;14.40;;;7.68;;
53925;SDS011;39836;52.754;6.866;2023-03-01T12:53:49;11.82;;;7.45;;
53925;SDS011;39836;52.754;6.866;2023-03-01T12:56:19;12.93;;;7.65;;
53925;SDS011;39836;52.754;6.866;2023-03-01T12:58:53;12.60;;;7.95;;
53925;SDS011;39836;52.754;6.866;2023-03-01T13:01:36;11.25;;;7.90;;
53925;SDS011;39836;52.754;6.866;2023-03-01T13:10:18;12.18;;;7.43;;
53925;SDS011;39836;52.754;6.866;2023-03-01T13:17:49;10.95;;;7.75;;
53925;SDS011;39836;52.754;6.866;2023-03-01T13:20:18;15.68;;;8.23;;
53925;SDS011;39836;52.754;6.866;2023-03-01T13:33:45;15.90;;;8.20;;
53925;SDS011;39836;52.754;6.866;2023-03-01T13:38:58;11.95;;;8.48;;
53925;SDS011;39836;52.754;6.866;2023-03-01T13:44:29;12.57;;;9.43;;
53925;SDS011;39836;52.754;6.866;2023-03-01T13:55:15;14.85;;;9.85;;
53925;SDS011;39836;52.754;6.866;2023-03-01T13:57:45;16.80;;;9.77;;
53925;SDS011;39836;52.754;6.866;2023-03-01T14:00:36;14.73;;;9.75;;
53925;SDS011;39836;52.754;6.866;2023-03-01T14:05:31;14.93;;;9.10;;
53925;SDS011;39836;52.754;6.866;2023-03-01T14:07:57;13.98;;;9.70;;
53925;SDS011;39836;52.754;6.866;2023-03-01T14:10:25;14.52;;;10.32;;
53925;SDS011;39836;52.754;6.866;2023-03-01T14:13:10;16.45;;;9.75;;
53925;SDS011;39836;52.754;6.866;2023-03-01T14:15:53;14.65;;;8.70;;
53925;SDS011;39836;52.754;6.866;2023-03-01T14:21:13;12.15;;;8.82;;
53925;SDS011;39836;52.754;6.866;2023-03-01T14:23:40;12.80;;;8.88;;
53925;SDS011;39836;52.754;6.866;2023-03-01T14:26:07;14.63;;;10.00;;
53925;SDS011;39836;52.754;6.866;2023-03-01T14:28:34;14.23;;;10.43;;
53925;SDS011;39836;52.754;6.866;2023-03-01T14:31:35;16.52;;;9.82;;
53925;SDS011;39836;52.754;6.866;2023-03-01T14:34:03;16.45;;;10.93;;
53925;SDS011;39836;52.754;6.866;2023-03-01T14:36:30;16.15;;;11.23;;
53925;SDS011;39836;52.754;6.866;2023-03-01T14:38:57;13.70;;;10.10;;
53925;SDS011;39836;52.754;6.866;2023-03-01T14:41:29;16.83;;;10.82;;
53925;SDS011;39836;52.754;6.866;2023-03-01T14:44:03;16.48;;;10.77;;
53925;SDS011;39836;52.754;6.866;2023-03-01T14:46:33;15.32;;;10.52;;
53925;SDS011;39836;52.754;6.866;2023-03-01T14:49:05;16.88;;;11.13;;
53925;SDS011;39836;52.754;6.866;2023-03-01T14:51:42;16.38;;;10.57;;
53925;SDS011;39836;52.754;6.866;2023-03-01T14:54:23;15.75;;;10.68;;
53925;SDS011;39836;52.754;6.866;2023-03-01T14:57:01;20.38;;;10.23;;
53925;SDS011;39836;52.754;6.866;2023-03-01T14:59:27;18.10;;;10.20;;
53925;SDS011;39836;52.754;6.866;2023-03-01T15:01:55;16.88;;;11.05;;
53925;SDS011;39836;52.754;6.866;2023-03-01T15:04:22;15.48;;;11.15;;
53925;SDS011;39836;52.754;6.866;2023-03-01T15:06:53;16.23;;;10.95;;
53925;SDS011;39836;52.754;6.866;2023-03-01T15:09:20;16.10;;;11.13;;
53925;SDS011;39836;52.754;6.866;2023-03-01T15:11:47;18.30;;;11.52;;
53925;SDS011;39836;52.754;6.866;2023-03-01T15:14:25;15.70;;;11.18;;
53925;SDS011;39836;52.754;6.866;2023-03-01T15:17:14;16.90;;;11.48;;
53925;SDS011;39836;52.754;6.866;2023-03-01T15:19:45;16.50;;;10.55;;
53925;SDS011;39836;52.754;6.866;2023-03-01T15:22:14;16.77;;;11.40;;
53925;SDS011;39836;52.754;6.866;2023-03-01T15:24:41;15.32;;;10.75;;
53925;SDS011;39836;52.754;6.866;2023-03-01T15:27:15;14.38;;;9.98;;
53925;SDS011;39836;52.754;6.866;2023-03-01T15:29:48;14.27;;;9.45;;
53925;SDS011;39836;52.754;6.866;2023-03-01T15:32:24;15.70;;;9.93;;
53925;SDS011;39836;52.754;6.866;2023-03-01T15:34:51;14.65;;;9.85;;
53925;SDS011;39836;52.754;6.866;2023-03-01T15:40:32;15.82;;;10.65;;
53925;SDS011;39836;52.754;6.866;2023-03-01T15:42:58;17.05;;;12.35;;
53925;SDS011;39836;52.754;6.866;2023-03-01T15:45:26;17.95;;;10.75;;
53925;SDS011;39836;52.754;6.866;2023-03-01T15:47:54;15.45;;;10.52;;
53925;SDS011;39836;52.754;6.866;2023-03-01T15:53:00;16.50;;;10.43;;
53925;SDS011;39836;52.754;6.866;2023-03-01T15:55:30;15.13;;;10.13;;
53925;SDS011;39836;52.754;6.866;2023-03-01T15:57:59;16.27;;;10.27;;
53925;SDS011;39836;52.754;6.866;2023-03-01T16:00:29;15.57;;;10.55;;
53925;SDS011;39836;52.754;6.866;2023-03-01T16:02:55;15.98;;;11.00;;
53925;SDS011;39836;52.754;6.866;2023-03-01T16:05:23;16.30;;;11.43;;
53925;SDS011;39836;52.754;6.866;2023-03-01T16:07:56;16.10;;;12.15;;
53925;SDS011;39836;52.754;6.866;2023-03-01T16:10:22;15.82;;;10.80;;
53925;SDS011;39836;52.754;6.866;2023-03-01T16:12:49;13.93;;;10.05;;
53925;SDS011;39836;52.754;6.866;2023-03-01T16:17:43;19.50;;;11.18;;
53925;SDS011;39836;52.754;6.866;2023-03-01T16:20:09;15.07;;;10.45;;
53925;SDS011;39836;52.754;6.866;2023-03-01T16:22:35;15.20;;;10.82;;
53925;SDS011;39836;52.754;6.866;2023-03-01T16:25:00;15.57;;;10.80;;
53925;SDS011;39836;52.754;6.866;2023-03-01T16:27:27;15.65;;;10.50;;
53925;SDS011;39836;52.754;6.866;2023-03-01T16:29:53;16.25;;;10.73;;
53925;SDS011;39836;52.754;6.866;2023-03-01T16:32:19;15.35;;;10.65;;
53925;SDS011;39836;52.754;6.866;2023-03-01T16:34:44;16.02;;;11.20;;
53925;SDS011;39836;52.754;6.866;2023-03-01T16:37:14;14.52;;;9.77;;
53925;SDS011;39836;52.754;6.866;2023-03-01T16:39:40;16.67;;;11.13;;
53925;SDS011;39836;52.754;6.866;2023-03-01T16:42:05;16.20;;;10.88;;
53925;SDS011;39836;52.754;6.866;2023-03-01T16:44:31;15.20;;;11.20;;
53925;SDS011;39836;52.754;6.866;2023-03-01T16:46:57;16.25;;;11.07;;
53925;SDS011;39836;52.754;6.866;2023-03-01T16:49:23;16.88;;;11.80;;
53925;SDS011;39836;52.754;6.866;2023-03-01T16:51:48;17.00;;;11.77;;